sensor_id;sensor_type;location;lat;lon;timestamp;pressure;altitude;pressure_sealevel;temperature;humidity
3812;BME280;1921;49.368;11.068;2023-04-30T00:01:19;97985.75;;;12.01;75.71
3812;BME280;1921;49.368;11.068;2023-04-30T00:03:45;97989.94;;;11.88;76.90
3812;BME280;1921;49.368;11.068;2023-04-30T00:06:10;97953.97;;;11.67;76.71
3812;BME280;1921;49.368;11.068;2023-04-30T00:08:36;97913.66;;;11.46;76.49
3812;BME280;1921;49.368;11.068;2023-04-30T00:11:02;97973.97;;;11.82;76.84
3812;BME280;1921;49.368;11.068;2023-04-30T00:13:27;97949.56;;;11.67;76.56
3812;BME280;1921;49.368;11.068;2023-04-30T00:15:53;97906.69;;;11.39;76.46
3812;BME280;1921;49.368;11.068;2023-04-30T00:18:19;97957.88;;;11.71;76.62
3812;BME280;1921;49.368;11.068;2023-04-30T00:20:44;97922.59;;;11.52;76.04
3812;BME280;1921;49.368;11.068;2023-04-30T00:23:10;97974.88;;;11.90;76.39
3812;BME280;1921;49.368;11.068;2023-04-30T00:25:36;97945.16;;;11.68;75.98
3812;BME280;1921;49.368;11.068;2023-04-30T00:28:02;97967.56;;;11.85;75.95
3812;BME280;1921;49.368;11.068;2023-04-30T00:30:27;97947.09;;;11.74;75.69
3812;BME280;1921;49.368;11.068;2023-04-30T00:32:53;97987.72;;;11.99;75.49
3812;BME280;1921;49.368;11.068;2023-04-30T00:35:19;97961.34;;;11.86;75.86
3812;BME280;1921;49.368;11.068;2023-04-30T00:37:45;97995.38;;;12.01;76.07
3812;BME280;1921;49.368;11.068;2023-04-30T00:40:11;98012.81;;;12.23;76.11
3812;BME280;1921;49.368;11.068;2023-04-30T00:42:37;97862.72;;;11.27;76.16
3812;BME280;1921;49.368;11.068;2023-04-30T00:45:03;97981.00;;;11.82;76.06
3812;BME280;1921;49.368;11.068;2023-04-30T00:47:29;97986.44;;;11.95;75.54
3812;BME280;1921;49.368;11.068;2023-04-30T00:49:57;97979.03;;;11.84;75.86
3812;BME280;1921;49.368;11.068;2023-04-30T00:52:23;97961.91;;;11.81;76.04
3812;BME280;1921;49.368;11.068;2023-04-30T00:54:49;98000.41;;;11.88;75.56
3812;BME280;1921;49.368;11.068;2023-04-30T00:57:15;97968.38;;;11.63;76.01
3812;BME280;1921;49.368;11.068;2023-04-30T00:59:40;97973.06;;;11.67;76.16
3812;BME280;1921;49.368;11.068;2023-04-30T01:02:07;98037.31;;;12.07;76.55
3812;BME280;1921;49.368;11.068;2023-04-30T01:04:32;97977.97;;;11.70;76.71
3812;BME280;1921;49.368;11.068;2023-04-30T01:06:59;98040.03;;;12.14;76.60
3812;BME280;1921;49.368;11.068;2023-04-30T01:09:29;97994.50;;;11.85;76.73
3812;BME280;1921;49.368;11.068;2023-04-30T01:15:28;98044.28;;;12.15;76.77
3812;BME280;1921;49.368;11.068;2023-04-30T01:18:38;98008.69;;;11.91;77.26
3812;BME280;1921;49.368;11.068;2023-04-30T01:21:05;98048.34;;;12.18;77.35
3812;BME280;1921;49.368;11.068;2023-04-30T01:27:12;98049.91;;;12.27;77.63
3812;BME280;1921;49.368;11.068;2023-04-30T01:29:41;98002.75;;;11.97;77.97
3812;BME280;1921;49.368;11.068;2023-04-30T01:32:10;98052.69;;;12.25;78.41
3812;BME280;1921;49.368;11.068;2023-04-30T01:34:36;98021.53;;;12.01;78.06
3812;BME280;1921;49.368;11.068;2023-04-30T01:37:33;97990.28;;;11.84;77.70
3812;BME280;1921;49.368;11.068;2023-04-30T01:43:10;98041.22;;;12.11;78.31
3812;BME280;1921;49.368;11.068;2023-04-30T01:51:27;97969.78;;;11.50;79.31
3812;BME280;1921;49.368;11.068;2023-04-30T01:54:00;98060.56;;;12.02;79.27
3812;BME280;1921;49.368;11.068;2023-04-30T01:56:33;97989.97;;;11.56;80.01
3812;BME280;1921;49.368;11.068;2023-04-30T01:59:03;98008.56;;;11.62;80.35
3812;BME280;1921;49.368;11.068;2023-04-30T02:01:31;98024.69;;;11.65;80.31
3812;BME280;1921;49.368;11.068;2023-04-30T02:03:58;98045.53;;;11.73;80.68
3812;BME280;1921;49.368;11.068;2023-04-30T02:06:24;98033.50;;;11.64;81.00
3812;BME280;1921;49.368;11.068;2023-04-30T02:08:53;98058.78;;;11.72;81.31
3812;BME280;1921;49.368;11.068;2023-04-30T02:11:20;98000.88;;;11.37;81.18
3812;BME280;1921;49.368;11.068;2023-04-30T02:13:49;98072.53;;;11.66;81.49
3812;BME280;1921;49.368;11.068;2023-04-30T02:16:14;97970.38;;;11.07;81.49
3812;BME280;1921;49.368;11.068;2023-04-30T02:18:41;98017.38;;;11.38;81.63
3812;BME280;1921;49.368;11.068;2023-04-30T02:21:07;98058.81;;;11.64;81.84
3812;BME280;1921;49.368;11.068;2023-04-30T02:23:32;98006.81;;;11.23;81.38
3812;BME280;1921;49.368;11.068;2023-04-30T02:25:58;97950.50;;;10.97;81.58
3812;BME280;1921;49.368;11.068;2023-04-30T02:28:24;97990.09;;;11.09;82.09
3812;BME280;1921;49.368;11.068;2023-04-30T02:30:50;98011.34;;;11.29;81.94
3812;BME280;1921;49.368;11.068;2023-04-30T02:33:15;97989.09;;;11.10;82.06
3812;BME280;1921;49.368;11.068;2023-04-30T02:35:41;98096.97;;;11.73;82.66
3812;BME280;1921;49.368;11.068;2023-04-30T02:38:07;98016.25;;;11.32;82.69
3812;BME280;1921;49.368;11.068;2023-04-30T02:40:33;97976.59;;;11.05;82.79
3812;BME280;1921;49.368;11.068;2023-04-30T02:42:58;98012.69;;;11.25;82.94
3812;BME280;1921;49.368;11.068;2023-04-30T02:45:26;98052.69;;;11.48;83.07
3812;BME280;1921;49.368;11.068;2023-04-30T02:47:51;97980.34;;;11.03;83.25
3812;BME280;1921;49.368;11.068;2023-04-30T02:50:17;98030.63;;;11.28;83.16
3812;BME280;1921;49.368;11.068;2023-04-30T02:52:45;98095.34;;;11.72;83.46
3812;BME280;1921;49.368;11.068;2023-04-30T02:55:11;98061.88;;;11.44;83.19
3812;BME280;1921;49.368;11.068;2023-04-30T02:57:37;98063.75;;;11.58;83.66
3812;BME280;1921;49.368;11.068;2023-04-30T03:00:04;98004.75;;;11.18;83.28
3812;BME280;1921;49.368;11.068;2023-04-30T03:02:30;98059.56;;;11.49;83.44
3812;BME280;1921;49.368;11.068;2023-04-30T03:04:56;98058.28;;;11.45;82.87
3812;BME280;1921;49.368;11.068;2023-04-30T03:07:21;98035.16;;;11.34;83.39
3812;BME280;1921;49.368;11.068;2023-04-30T03:09:47;98015.81;;;11.20;83.11
3812;BME280;1921;49.368;11.068;2023-04-30T03:12:13;98074.88;;;11.52;83.18
3812;BME280;1921;49.368;11.068;2023-04-30T03:14:41;98051.13;;;11.39;83.95
3812;BME280;1921;49.368;11.068;2023-04-30T03:17:07;98044.97;;;11.32;83.17
3812;BME280;1921;49.368;11.068;2023-04-30T03:19:32;98078.94;;;11.55;83.84
3812;BME280;1921;49.368;11.068;2023-04-30T03:21:58;98072.28;;;11.52;84.17
3812;BME280;1921;49.368;11.068;2023-04-30T03:24:24;98011.91;;;11.16;83.99
3812;BME280;1921;49.368;11.068;2023-04-30T03:26:50;98025.56;;;11.26;84.17
3812;BME280;1921;49.368;11.068;2023-04-30T03:29:16;98026.72;;;11.24;84.75
3812;BME280;1921;49.368;11.068;2023-04-30T03:31:42;98037.38;;;11.14;85.40
3812;BME280;1921;49.368;11.068;2023-04-30T03:34:08;98066.03;;;11.30;85.38
3812;BME280;1921;49.368;11.068;2023-04-30T03:36:34;98056.03;;;11.34;85.33
3812;BME280;1921;49.368;11.068;2023-04-30T03:39:00;98020.41;;;11.10;85.39
3812;BME280;1921;49.368;11.068;2023-04-30T03:41:26;98029.09;;;11.02;85.56
3812;BME280;1921;49.368;11.068;2023-04-30T03:43:52;98058.66;;;11.34;85.42
3812;BME280;1921;49.368;11.068;2023-04-30T03:46:19;97956.38;;;10.68;85.56
3812;BME280;1921;49.368;11.068;2023-04-30T03:48:44;98033.97;;;11.14;85.54
3812;BME280;1921;49.368;11.068;2023-04-30T03:51:10;98029.91;;;11.03;85.66
3812;BME280;1921;49.368;11.068;2023-04-30T03:53:36;98022.25;;;11.01;85.53
3812;BME280;1921;49.368;11.068;2023-04-30T03:56:02;97968.41;;;10.69;85.69
3812;BME280;1921;49.368;11.068;2023-04-30T03:58:29;98047.47;;;11.17;85.52
3812;BME280;1921;49.368;11.068;2023-04-30T04:00:55;98015.44;;;10.92;86.13
3812;BME280;1921;49.368;11.068;2023-04-30T04:03:21;98050.56;;;11.21;86.12
3812;BME280;1921;49.368;11.068;2023-04-30T04:05:47;98014.31;;;10.95;86.08
3812;BME280;1921;49.368;11.068;2023-04-30T04:08:13;98039.22;;;11.05;86.04
3812;BME280;1921;49.368;11.068;2023-04-30T04:10:39;98085.75;;;11.33;86.08
3812;BME280;1921;49.368;11.068;2023-04-30T04:13:05;98042.66;;;11.06;86.02
3812;BME280;1921;49.368;11.068;2023-04-30T04:15:32;98026.06;;;10.91;85.89
3812;BME280;1921;49.368;11.068;2023-04-30T04:17:58;98004.13;;;10.69;86.30
3812;BME280;1921;49.368;11.068;2023-04-30T04:20:24;98040.53;;;11.01;86.63
3812;BME280;1921;49.368;11.068;2023-04-30T04:22:50;98001.84;;;10.66;87.11
3812;BME280;1921;49.368;11.068;2023-04-30T04:25:15;97990.78;;;10.64;87.17
3812;BME280;1921;49.368;11.068;2023-04-30T04:27:43;97968.31;;;10.46;87.18
3812;BME280;1921;49.368;11.068;2023-04-30T04:30:12;98038.09;;;11.00;87.29
3812;BME280;1921;49.368;11.068;2023-04-30T04:32:38;98050.59;;;11.13;87.48
3812;BME280;1921;49.368;11.068;2023-04-30T04:35:12;98038.56;;;11.03;87.52
3812;BME280;1921;49.368;11.068;2023-04-30T04:37:38;97990.69;;;10.80;87.23
3812;BME280;1921;49.368;11.068;2023-04-30T04:40:04;98099.38;;;11.51;87.43
3812;BME280;1921;49.368;11.068;2023-04-30T04:42:30;98037.56;;;11.13;87.44
3812;BME280;1921;49.368;11.068;2023-04-30T04:44:56;98110.44;;;11.62;87.37
3812;BME280;1921;49.368;11.068;2023-04-30T04:47:22;98095.09;;;11.58;86.94
3812;BME280;1921;49.368;11.068;2023-04-30T04:49:49;98085.63;;;11.57;87.40
3812;BME280;1921;49.368;11.068;2023-04-30T04:52:14;98104.66;;;11.74;87.81
3812;BME280;1921;49.368;11.068;2023-04-30T04:54:40;98063.00;;;11.73;88.99
3812;BME280;1921;49.368;11.068;2023-04-30T04:57:06;98033.28;;;11.82;89.04
3812;BME280;1921;49.368;11.068;2023-04-30T04:59:31;98066.66;;;12.18;86.57
3812;BME280;1921;49.368;11.068;2023-04-30T05:01:57;98116.50;;;12.54;85.00
3812;BME280;1921;49.368;11.068;2023-04-30T05:04:23;98036.25;;;12.17;83.92
3812;BME280;1921;49.368;11.068;2023-04-30T05:06:49;98045.28;;;12.29;83.51
3812;BME280;1921;49.368;11.068;2023-04-30T05:09:15;98058.56;;;12.42;83.15
3812;BME280;1921;49.368;11.068;2023-04-30T05:11:41;98114.13;;;12.82;82.20
3812;BME280;1921;49.368;11.068;2023-04-30T05:14:11;98068.19;;;12.64;81.83
3812;BME280;1921;49.368;11.068;2023-04-30T05:16:36;98105.13;;;12.99;81.44
3812;BME280;1921;49.368;11.068;2023-04-30T05:19:02;98068.47;;;12.84;81.15
3812;BME280;1921;49.368;11.068;2023-04-30T05:21:28;97945.53;;;12.02;80.64
3812;BME280;1921;49.368;11.068;2023-04-30T05:23:54;98041.66;;;12.97;80.39
3812;BME280;1921;49.368;11.068;2023-04-30T05:26:20;98014.16;;;12.86;78.46
3812;BME280;1921;49.368;11.068;2023-04-30T05:28:49;98056.28;;;13.36;77.93
3812;BME280;1921;49.368;11.068;2023-04-30T05:31:15;98080.19;;;13.47;73.11
3812;BME280;1921;49.368;11.068;2023-04-30T05:33:41;98103.44;;;13.21;76.04
3812;BME280;1921;49.368;11.068;2023-04-30T05:36:07;98086.50;;;12.27;76.97
3812;BME280;1921;49.368;11.068;2023-04-30T05:38:33;98065.03;;;11.31;80.79
3812;BME280;1921;49.368;11.068;2023-04-30T05:40:59;98029.97;;;10.87;83.18
3812;BME280;1921;49.368;11.068;2023-04-30T05:43:25;98053.53;;;11.10;83.78
3812;BME280;1921;49.368;11.068;2023-04-30T05:45:51;98008.94;;;10.88;82.69
3812;BME280;1921;49.368;11.068;2023-04-30T05:48:17;98087.66;;;11.08;84.59
3812;BME280;1921;49.368;11.068;2023-04-30T05:50:43;98017.41;;;10.27;87.16
3812;BME280;1921;49.368;11.068;2023-04-30T05:53:17;97920.34;;;9.92;86.36
3812;BME280;1921;49.368;11.068;2023-04-30T05:55:55;98077.69;;;11.51;85.11
3812;BME280;1921;49.368;11.068;2023-04-30T05:58:21;97991.25;;;11.07;81.07
3812;BME280;1921;49.368;11.068;2023-04-30T06:00:53;98128.19;;;11.66;81.66
3812;BME280;1921;49.368;11.068;2023-04-30T06:03:19;98063.44;;;10.83;84.06
3812;BME280;1921;49.368;11.068;2023-04-30T06:05:51;98045.22;;;11.14;84.44
3812;BME280;1921;49.368;11.068;2023-04-30T06:08:17;98083.41;;;10.99;84.16
3812;BME280;1921;49.368;11.068;2023-04-30T06:10:43;98057.91;;;10.62;85.96
3812;BME280;1921;49.368;11.068;2023-04-30T06:13:08;98125.84;;;10.93;86.47
3812;BME280;1921;49.368;11.068;2023-04-30T06:15:34;98082.69;;;10.66;85.41
3812;BME280;1921;49.368;11.068;2023-04-30T06:18:00;98121.50;;;11.32;84.53
3812;BME280;1921;49.368;11.068;2023-04-30T06:20:26;98079.97;;;11.15;83.44
3812;BME280;1921;49.368;11.068;2023-04-30T06:22:52;98043.84;;;10.79;83.38
3812;BME280;1921;49.368;11.068;2023-04-30T06:25:18;98086.09;;;11.61;80.38
3812;BME280;1921;49.368;11.068;2023-04-30T06:28:03;98059.16;;;11.29;80.05
3812;BME280;1921;49.368;11.068;2023-04-30T06:30:31;98058.41;;;11.21;79.89
3812;BME280;1921;49.368;11.068;2023-04-30T06:32:56;98039.44;;;10.88;81.21
3812;BME280;1921;49.368;11.068;2023-04-30T06:35:22;98045.22;;;11.14;80.67
3812;BME280;1921;49.368;11.068;2023-04-30T06:37:48;98072.53;;;11.35;79.36
3812;BME280;1921;49.368;11.068;2023-04-30T06:40:14;97981.38;;;10.46;80.24
3812;BME280;1921;49.368;11.068;2023-04-30T06:42:40;98085.41;;;10.97;80.41
3812;BME280;1921;49.368;11.068;2023-04-30T06:45:07;98043.19;;;10.85;79.77
3812;BME280;1921;49.368;11.068;2023-04-30T06:47:33;98063.22;;;10.93;80.12
3812;BME280;1921;49.368;11.068;2023-04-30T06:50:00;98118.16;;;11.47;79.52
3812;BME280;1921;49.368;11.068;2023-04-30T06:52:27;98124.38;;;11.46;78.65
3812;BME280;1921;49.368;11.068;2023-04-30T06:54:53;97968.28;;;11.02;77.91
3812;BME280;1921;49.368;11.068;2023-04-30T06:57:19;98102.88;;;11.98;74.86
3812;BME280;1921;49.368;11.068;2023-04-30T06:59:45;98065.63;;;11.73;73.69
3812;BME280;1921;49.368;11.068;2023-04-30T07:02:11;98060.63;;;11.32;74.90
3812;BME280;1921;49.368;11.068;2023-04-30T07:04:37;98102.19;;;11.81;76.24
3812;BME280;1921;49.368;11.068;2023-04-30T07:07:02;98091.38;;;11.84;75.81
3812;BME280;1921;49.368;11.068;2023-04-30T07:09:29;98080.16;;;11.75;75.42
3812;BME280;1921;49.368;11.068;2023-04-30T07:11:56;98084.06;;;12.02;75.04
3812;BME280;1921;49.368;11.068;2023-04-30T07:14:23;98086.31;;;12.51;72.98
3812;BME280;1921;49.368;11.068;2023-04-30T07:16:49;98074.59;;;12.24;72.22
3812;BME280;1921;49.368;11.068;2023-04-30T07:19:15;98107.28;;;13.10;68.64
3812;BME280;1921;49.368;11.068;2023-04-30T07:21:41;98101.78;;;13.86;69.75
3812;BME280;1921;49.368;11.068;2023-04-30T07:24:07;97981.66;;;12.51;67.87
3812;BME280;1921;49.368;11.068;2023-04-30T07:26:33;98015.75;;;12.73;67.17
3812;BME280;1921;49.368;11.068;2023-04-30T07:28:58;98085.00;;;12.47;67.17
3812;BME280;1921;49.368;11.068;2023-04-30T07:31:25;98087.47;;;12.49;68.38
3812;BME280;1921;49.368;11.068;2023-04-30T07:33:57;98124.56;;;13.34;66.73
3812;BME280;1921;49.368;11.068;2023-04-30T07:36:23;98087.09;;;13.04;66.60
3812;BME280;1921;49.368;11.068;2023-04-30T07:38:49;98125.53;;;13.18;65.50
3812;BME280;1921;49.368;11.068;2023-04-30T07:41:18;98052.03;;;13.71;62.19
3812;BME280;1921;49.368;11.068;2023-04-30T07:43:43;98072.25;;;13.77;61.21
3812;BME280;1921;49.368;11.068;2023-04-30T07:46:11;98107.38;;;14.96;59.28
3812;BME280;1921;49.368;11.068;2023-04-30T07:48:37;98084.28;;;14.85;55.86
3812;BME280;1921;49.368;11.068;2023-04-30T07:51:03;98067.72;;;14.57;56.89
3812;BME280;1921;49.368;11.068;2023-04-30T07:53:31;98054.16;;;14.81;55.50
3812;BME280;1921;49.368;11.068;2023-04-30T07:55:58;98101.53;;;15.01;56.79
3812;BME280;1921;49.368;11.068;2023-04-30T07:58:24;98111.84;;;14.25;59.05
3812;BME280;1921;49.368;11.068;2023-04-30T08:00:50;98101.34;;;13.82;60.43
3812;BME280;1921;49.368;11.068;2023-04-30T08:03:16;98077.72;;;13.61;60.31
3812;BME280;1921;49.368;11.068;2023-04-30T08:05:41;98076.50;;;14.21;59.47
3812;BME280;1921;49.368;11.068;2023-04-30T08:08:07;98099.13;;;14.99;55.66
3812;BME280;1921;49.368;11.068;2023-04-30T08:10:33;98052.78;;;15.26;55.73
3812;BME280;1921;49.368;11.068;2023-04-30T08:12:59;98048.44;;;15.53;52.64
3812;BME280;1921;49.368;11.068;2023-04-30T08:15:25;98085.81;;;16.56;48.06
3812;BME280;1921;49.368;11.068;2023-04-30T08:17:51;98065.56;;;15.36;50.76
3812;BME280;1921;49.368;11.068;2023-04-30T08:20:17;98051.97;;;15.26;51.35
3812;BME280;1921;49.368;11.068;2023-04-30T08:22:43;98095.75;;;14.49;53.11
3812;BME280;1921;49.368;11.068;2023-04-30T08:25:10;98014.50;;;13.70;51.42
3812;BME280;1921;49.368;11.068;2023-04-30T08:27:39;98080.63;;;14.09;52.21
3812;BME280;1921;49.368;11.068;2023-04-30T08:30:09;98058.81;;;13.65;54.51
3812;BME280;1921;49.368;11.068;2023-04-30T08:32:42;98092.06;;;13.65;56.42
3812;BME280;1921;49.368;11.068;2023-04-30T08:35:09;98048.06;;;13.09;57.60
3812;BME280;1921;49.368;11.068;2023-04-30T08:37:34;98017.66;;;12.79;58.21
3812;BME280;1921;49.368;11.068;2023-04-30T08:40:03;98078.19;;;13.50;57.61
3812;BME280;1921;49.368;11.068;2023-04-30T08:42:36;98041.59;;;13.78;55.81
3812;BME280;1921;49.368;11.068;2023-04-30T08:45:03;98082.91;;;14.61;52.76
3812;BME280;1921;49.368;11.068;2023-04-30T08:47:29;98065.09;;;14.07;54.34
3812;BME280;1921;49.368;11.068;2023-04-30T08:49:55;98059.44;;;14.32;54.04
3812;BME280;1921;49.368;11.068;2023-04-30T08:52:21;98019.13;;;14.61;49.13
3812;BME280;1921;49.368;11.068;2023-04-30T08:54:49;98106.06;;;14.30;51.74
3812;BME280;1921;49.368;11.068;2023-04-30T08:57:17;98045.66;;;13.80;51.75
3812;BME280;1921;49.368;11.068;2023-04-30T08:59:46;98049.75;;;14.32;51.84
3812;BME280;1921;49.368;11.068;2023-04-30T09:02:12;98087.97;;;14.91;51.33
3812;BME280;1921;49.368;11.068;2023-04-30T09:04:38;98100.81;;;14.79;48.46
3812;BME280;1921;49.368;11.068;2023-04-30T09:07:06;98078.44;;;14.12;51.05
3812;BME280;1921;49.368;11.068;2023-04-30T09:09:37;98030.97;;;14.07;50.23
3812;BME280;1921;49.368;11.068;2023-04-30T09:12:15;98077.09;;;14.16;51.04
3812;BME280;1921;49.368;11.068;2023-04-30T09:14:57;98112.56;;;14.55;50.45
3812;BME280;1921;49.368;11.068;2023-04-30T09:17:24;98055.50;;;14.21;48.94
3812;BME280;1921;49.368;11.068;2023-04-30T09:19:51;98098.16;;;14.72;47.40
3812;BME280;1921;49.368;11.068;2023-04-30T09:22:23;98067.50;;;14.09;48.00
3812;BME280;1921;49.368;11.068;2023-04-30T09:24:50;98100.78;;;14.08;49.09
3812;BME280;1921;49.368;11.068;2023-04-30T09:27:18;98079.44;;;14.89;50.00
3812;BME280;1921;49.368;11.068;2023-04-30T09:29:44;98023.88;;;14.50;48.70
3812;BME280;1921;49.368;11.068;2023-04-30T09:32:12;98028.75;;;14.88;47.98
3812;BME280;1921;49.368;11.068;2023-04-30T09:34:39;98068.78;;;15.86;46.83
3812;BME280;1921;49.368;11.068;2023-04-30T09:37:05;98053.19;;;16.90;43.37
3812;BME280;1921;49.368;11.068;2023-04-30T09:39:32;98071.94;;;17.79;40.45
3812;BME280;1921;49.368;11.068;2023-04-30T09:42:11;98083.53;;;18.34;40.86
3812;BME280;1921;49.368;11.068;2023-04-30T09:44:38;98088.25;;;19.37;39.45
3812;BME280;1921;49.368;11.068;2023-04-30T09:47:14;98075.09;;;20.86;37.14
3812;BME280;1921;49.368;11.068;2023-04-30T09:49:54;98079.09;;;21.35;36.11
3812;BME280;1921;49.368;11.068;2023-04-30T09:52:20;97880.78;;;18.36;38.46
3812;BME280;1921;49.368;11.068;2023-04-30T09:54:46;98009.31;;;17.16;42.41
3812;BME280;1921;49.368;11.068;2023-04-30T09:57:15;98048.69;;;17.94;40.61
3812;BME280;1921;49.368;11.068;2023-04-30T09:59:45;98078.94;;;20.13;37.70
3812;BME280;1921;49.368;11.068;2023-04-30T10:02:15;98006.78;;;20.64;35.81
3812;BME280;1921;49.368;11.068;2023-04-30T10:04:44;98101.41;;;18.32;40.72
3812;BME280;1921;49.368;11.068;2023-04-30T10:07:17;98068.88;;;20.03;36.98
3812;BME280;1921;49.368;11.068;2023-04-30T10:10:07;98021.44;;;21.19;34.70
3812;BME280;1921;49.368;11.068;2023-04-30T10:12:50;98034.66;;;21.71;32.87
3812;BME280;1921;49.368;11.068;2023-04-30T10:15:29;98020.88;;;19.58;36.07
3812;BME280;1921;49.368;11.068;2023-04-30T10:18:04;98063.56;;;18.20;40.43
3812;BME280;1921;49.368;11.068;2023-04-30T10:20:35;98038.75;;;19.26;37.92
3812;BME280;1921;49.368;11.068;2023-04-30T10:23:04;97995.00;;;20.13;35.89
3812;BME280;1921;49.368;11.068;2023-04-30T10:25:31;98027.75;;;18.92;37.00
3812;BME280;1921;49.368;11.068;2023-04-30T10:27:58;98032.47;;;17.01;41.93
3812;BME280;1921;49.368;11.068;2023-04-30T10:30:25;98018.28;;;17.08;40.89
3812;BME280;1921;49.368;11.068;2023-04-30T10:33:22;98050.44;;;17.68;41.80
3812;BME280;1921;49.368;11.068;2023-04-30T10:35:58;97998.53;;;17.24;40.07
3812;BME280;1921;49.368;11.068;2023-04-30T10:38:28;98013.50;;;16.79;41.13
3812;BME280;1921;49.368;11.068;2023-04-30T10:40:56;97991.94;;;17.08;40.35
3812;BME280;1921;49.368;11.068;2023-04-30T10:43:32;97978.59;;;16.97;40.19
3812;BME280;1921;49.368;11.068;2023-04-30T10:46:01;98008.56;;;18.35;37.96
3812;BME280;1921;49.368;11.068;2023-04-30T10:48:27;97982.06;;;18.23;37.35
3812;BME280;1921;49.368;11.068;2023-04-30T10:50:57;97971.31;;;19.17;35.88
3812;BME280;1921;49.368;11.068;2023-04-30T10:53:24;97958.91;;;19.77;35.07
3812;BME280;1921;49.368;11.068;2023-04-30T10:55:56;98025.47;;;17.71;39.17
3812;BME280;1921;49.368;11.068;2023-04-30T10:58:30;97983.97;;;16.43;42.18
3812;BME280;1921;49.368;11.068;2023-04-30T11:01:04;98038.22;;;16.58;42.26
3812;BME280;1921;49.368;11.068;2023-04-30T11:03:33;98016.00;;;16.27;41.96
3812;BME280;1921;49.368;11.068;2023-04-30T11:06:00;97920.53;;;16.52;40.76
3812;BME280;1921;49.368;11.068;2023-04-30T11:08:36;97931.91;;;18.42;38.20
3812;BME280;1921;49.368;11.068;2023-04-30T11:11:03;97985.47;;;18.49;37.19
3812;BME280;1921;49.368;11.068;2023-04-30T11:13:47;97987.19;;;17.93;37.43
3812;BME280;1921;49.368;11.068;2023-04-30T11:16:15;97950.97;;;17.75;37.75
3812;BME280;1921;49.368;11.068;2023-04-30T11:18:45;97994.75;;;17.45;39.54
3812;BME280;1921;49.368;11.068;2023-04-30T11:21:12;97974.56;;;19.79;35.48
3812;BME280;1921;49.368;11.068;2023-04-30T11:23:42;97977.41;;;17.62;39.30
3812;BME280;1921;49.368;11.068;2023-04-30T11:26:09;97982.78;;;17.49;39.83
3812;BME280;1921;49.368;11.068;2023-04-30T11:28:36;97943.53;;;16.96;40.91
3812;BME280;1921;49.368;11.068;2023-04-30T11:31:03;97953.13;;;16.64;40.86
3812;BME280;1921;49.368;11.068;2023-04-30T11:33:30;97992.16;;;17.38;40.16
3812;BME280;1921;49.368;11.068;2023-04-30T11:35:59;97903.81;;;17.29;39.97
3812;BME280;1921;49.368;11.068;2023-04-30T11:38:33;97991.47;;;17.18;40.70
3812;BME280;1921;49.368;11.068;2023-04-30T11:41:01;97929.91;;;17.37;39.72
3812;BME280;1921;49.368;11.068;2023-04-30T11:43:28;97904.47;;;18.61;37.26
3812;BME280;1921;49.368;11.068;2023-04-30T11:46:16;97965.28;;;20.35;35.78
3812;BME280;1921;49.368;11.068;2023-04-30T11:48:46;97931.09;;;21.26;32.92
3812;BME280;1921;49.368;11.068;2023-04-30T11:51:20;97922.25;;;21.20;32.88
3812;BME280;1921;49.368;11.068;2023-04-30T11:53:51;97933.16;;;22.75;31.34
3812;BME280;1921;49.368;11.068;2023-04-30T11:56:22;97949.66;;;24.07;30.05
3812;BME280;1921;49.368;11.068;2023-04-30T11:58:51;97929.69;;;24.09;29.78
3812;BME280;1921;49.368;11.068;2023-04-30T12:01:17;97946.50;;;24.52;28.78
3812;BME280;1921;49.368;11.068;2023-04-30T12:03:47;97932.81;;;23.64;30.21
3812;BME280;1921;49.368;11.068;2023-04-30T12:06:25;97935.31;;;23.76;29.89
3812;BME280;1921;49.368;11.068;2023-04-30T12:08:59;97915.66;;;23.28;30.71
3812;BME280;1921;49.368;11.068;2023-04-30T12:11:30;97959.34;;;23.59;28.54
3812;BME280;1921;49.368;11.068;2023-04-30T12:14:10;97907.59;;;19.90;34.17
3812;BME280;1921;49.368;11.068;2023-04-30T12:16:44;97968.81;;;18.48;37.14
3812;BME280;1921;49.368;11.068;2023-04-30T12:19:11;97971.88;;;17.39;39.27
3812;BME280;1921;49.368;11.068;2023-04-30T12:21:38;97954.53;;;17.88;40.30
3812;BME280;1921;49.368;11.068;2023-04-30T12:24:05;97902.78;;;18.30;37.96
3812;BME280;1921;49.368;11.068;2023-04-30T12:26:37;97912.84;;;18.21;37.71
3812;BME280;1921;49.368;11.068;2023-04-30T12:29:16;97946.50;;;18.44;37.95
3812;BME280;1921;49.368;11.068;2023-04-30T12:31:43;97902.97;;;18.72;38.19
3812;BME280;1921;49.368;11.068;2023-04-30T12:34:12;97958.97;;;17.94;38.80
3812;BME280;1921;49.368;11.068;2023-04-30T12:36:40;97950.91;;;17.19;39.33
3812;BME280;1921;49.368;11.068;2023-04-30T12:39:10;97956.72;;;16.89;39.49
3812;BME280;1921;49.368;11.068;2023-04-30T12:41:42;97932.91;;;16.45;40.66
3812;BME280;1921;49.368;11.068;2023-04-30T12:44:26;97873.28;;;16.12;40.81
3812;BME280;1921;49.368;11.068;2023-04-30T12:46:55;97924.47;;;16.94;39.97
3812;BME280;1921;49.368;11.068;2023-04-30T12:49:27;97931.19;;;17.28;39.23
3812;BME280;1921;49.368;11.068;2023-04-30T12:52:05;97914.47;;;17.97;38.31
3812;BME280;1921;49.368;11.068;2023-04-30T12:54:34;97900.88;;;17.69;38.28
3812;BME280;1921;49.368;11.068;2023-04-30T12:57:11;97953.91;;;17.61;39.89
3812;BME280;1921;49.368;11.068;2023-04-30T12:59:58;97907.25;;;18.11;37.57
3812;BME280;1921;49.368;11.068;2023-04-30T13:02:28;97930.00;;;18.30;36.66
3812;BME280;1921;49.368;11.068;2023-04-30T13:04:56;97917.25;;;19.73;35.48
3812;BME280;1921;49.368;11.068;2023-04-30T13:07:22;97899.72;;;20.42;34.48
3812;BME280;1921;49.368;11.068;2023-04-30T13:09:48;97944.94;;;19.58;35.85
3812;BME280;1921;49.368;11.068;2023-04-30T13:12:14;97888.13;;;18.52;36.15
3812;BME280;1921;49.368;11.068;2023-04-30T13:14:39;97918.09;;;19.13;36.92
3812;BME280;1921;49.368;11.068;2023-04-30T13:17:06;97923.44;;;18.58;37.42
3812;BME280;1921;49.368;11.068;2023-04-30T13:19:34;97928.91;;;18.20;38.06
3812;BME280;1921;49.368;11.068;2023-04-30T13:22:00;97923.38;;;17.78;38.72
3812;BME280;1921;49.368;11.068;2023-04-30T13:24:26;97899.50;;;17.03;40.95
3812;BME280;1921;49.368;11.068;2023-04-30T13:26:52;97903.34;;;17.01;40.42
3812;BME280;1921;49.368;11.068;2023-04-30T13:29:18;97884.06;;;16.62;41.41
3812;BME280;1921;49.368;11.068;2023-04-30T13:31:47;97885.34;;;16.39;41.80